createdAt,value
2023-03-31T03:00:45.222Z,9.70
2023-03-31T03:03:41.194Z,9.70
2023-03-31T03:06:20.665Z,9.70
2023-03-31T03:09:26.602Z,9.80
2023-03-31T03:12:15.317Z,9.80
2023-03-31T03:14:59.731Z,9.80
2023-03-31T03:17:42.148Z,9.80
2023-03-31T03:20:10.815Z,9.80
2023-03-31T03:22:39.034Z,9.80
2023-03-31T03:25:12.748Z,9.90
2023-03-31T03:27:40.839Z,9.90
2023-03-31T03:30:10.458Z,9.90
2023-03-31T03:32:38.062Z,9.90
2023-03-31T03:35:07.041Z,9.90
2023-03-31T03:37:35.413Z,9.90
2023-03-31T03:40:05.074Z,9.90
2023-03-31T03:42:33.154Z,10.00
2023-03-31T03:45:01.436Z,10.00
2023-03-31T03:47:29.162Z,10.00
2023-03-31T03:49:56.514Z,10.00
2023-03-31T03:52:23.724Z,10.00
2023-03-31T03:54:50.969Z,10.00
2023-03-31T03:57:18.253Z,10.00
2023-03-31T03:59:45.591Z,9.90
2023-03-31T04:02:13.031Z,9.90
2023-03-31T04:04:40.423Z,9.90
2023-03-31T04:07:07.713Z,9.90
2023-03-31T04:09:34.949Z,9.80
2023-03-31T04:12:02.319Z,9.90
2023-03-31T04:14:29.631Z,9.90
2023-03-31T04:16:58.633Z,9.90
2023-03-31T04:19:26.129Z,9.80
2023-03-31T04:21:58.978Z,9.80
2023-03-31T04:24:30.750Z,9.80
2023-03-31T04:26:58.478Z,9.70
2023-03-31T04:29:28.727Z,9.70
2023-03-31T04:31:59.400Z,9.80
2023-03-31T04:34:35.028Z,9.80
2023-03-31T04:37:03.854Z,9.80
2023-03-31T04:39:31.745Z,9.80
2023-03-31T04:42:00.301Z,9.90
2023-03-31T04:44:28.316Z,9.80
2023-03-31T04:46:56.254Z,9.80
2023-03-31T04:49:23.524Z,9.80
2023-03-31T04:51:50.929Z,9.80
2023-03-31T04:54:18.387Z,9.80
2023-03-31T04:56:46.352Z,9.80
2023-03-31T04:59:13.672Z,9.70
2023-03-31T05:01:45.808Z,9.70
2023-03-31T05:04:13.184Z,9.60
2023-03-31T05:06:40.439Z,9.50
2023-03-31T05:09:09.661Z,9.50
2023-03-31T05:11:38.210Z,9.40
2023-03-31T05:14:05.734Z,9.50
2023-03-31T05:16:33.111Z,9.50
2023-03-31T05:19:00.976Z,9.50
2023-03-31T05:21:30.513Z,9.30
2023-03-31T05:23:58.228Z,9.30
2023-03-31T05:26:25.908Z,9.10
2023-03-31T05:28:54.117Z,9.00
2023-03-31T05:31:21.455Z,9.00
2023-03-31T05:33:48.739Z,9.00
2023-03-31T05:36:18.117Z,9.00
2023-03-31T05:38:45.805Z,9.00
2023-03-31T05:41:13.051Z,9.00
2023-03-31T05:43:40.366Z,9.00
2023-03-31T05:46:08.411Z,9.10
2023-03-31T05:48:37.504Z,9.20
2023-03-31T05:51:05.786Z,9.30
2023-03-31T05:53:33.780Z,9.30
2023-03-31T05:56:04.444Z,9.40
2023-03-31T05:58:31.763Z,9.50
2023-03-31T06:01:07.812Z,9.40
2023-03-31T06:03:37.449Z,9.40
2023-03-31T06:06:05.595Z,9.50
2023-03-31T06:08:32.892Z,9.60
2023-03-31T06:11:00.697Z,9.80
2023-03-31T06:13:27.944Z,9.90
2023-03-31T06:15:57.163Z,9.90
2023-03-31T06:18:24.959Z,9.80
2023-03-31T06:20:52.408Z,9.70
2023-03-31T06:23:19.641Z,9.70
2023-03-31T06:25:51.487Z,9.60
2023-03-31T06:28:20.520Z,9.50
2023-03-31T06:30:47.821Z,9.70
2023-03-31T06:33:15.089Z,9.70
2023-03-31T06:35:42.350Z,9.70
2023-03-31T06:38:09.670Z,9.80
2023-03-31T06:40:36.871Z,9.90
2023-03-31T06:43:04.504Z,9.90
2023-03-31T06:45:31.878Z,9.90
2023-03-31T06:47:59.191Z,10.00
2023-03-31T06:50:26.463Z,10.00
2023-03-31T06:52:55.380Z,10.00
2023-03-31T06:55:22.723Z,9.90
2023-03-31T06:57:50.283Z,9.90
2023-03-31T07:00:19.600Z,10.00
2023-03-31T07:02:48.989Z,10.10
2023-03-31T07:05:16.738Z,9.90
2023-03-31T07:07:46.288Z,9.90
2023-03-31T07:10:13.844Z,9.90
2023-03-31T07:12:41.269Z,10.00
2023-03-31T07:15:09.008Z,10.00
2023-03-31T07:17:37.525Z,10.00
2023-03-31T07:20:09.879Z,10.00
2023-03-31T07:22:37.095Z,10.10
2023-03-31T07:25:04.591Z,10.10
2023-03-31T07:27:31.884Z,10.20
2023-03-31T07:29:59.185Z,10.30
2023-03-31T07:32:28.465Z,10.50
2023-03-31T07:34:56.325Z,10.60
2023-03-31T07:37:23.604Z,10.50
2023-03-31T07:39:51.300Z,10.40
2023-03-31T07:42:18.615Z,10.30
2023-03-31T07:44:46.238Z,10.30
2023-03-31T07:47:13.539Z,10.20
2023-03-31T07:49:41.030Z,10.30
2023-03-31T07:52:08.237Z,10.60
2023-03-31T07:54:36.044Z,10.60
2023-03-31T07:57:06.140Z,10.70
2023-03-31T07:59:33.437Z,10.90
2023-03-31T08:02:01.341Z,10.90
2023-03-31T08:04:28.941Z,10.80
2023-03-31T08:06:56.624Z,10.90
2023-03-31T08:09:23.997Z,10.80
2023-03-31T08:11:51.260Z,11.30
2023-03-31T08:14:27.171Z,11.60
2023-03-31T08:17:01.647Z,12.80
2023-03-31T08:19:29.077Z,13.30
2023-03-31T08:21:56.404Z,13.00
2023-03-31T08:24:23.662Z,12.90
2023-03-31T08:26:50.970Z,12.50
2023-03-31T08:29:18.166Z,12.20
2023-03-31T08:31:45.460Z,12.00
2023-03-31T08:34:12.721Z,11.90
2023-03-31T08:36:39.916Z,11.90
2023-03-31T08:39:07.554Z,11.80
2023-03-31T08:41:58.497Z,12.00
2023-03-31T08:44:40.974Z,12.10
2023-03-31T08:47:20.176Z,11.90
2023-03-31T08:50:26.342Z,11.80
2023-03-31T08:53:07.505Z,11.70
2023-03-31T08:55:54.491Z,12.00
2023-03-31T08:58:40.874Z,11.90
2023-03-31T09:01:25.515Z,12.00
2023-03-31T09:04:27.238Z,12.10
2023-03-31T09:07:12.112Z,12.20
2023-03-31T09:09:54.380Z,12.40
2023-03-31T09:12:34.681Z,12.00
2023-03-31T09:15:06.340Z,11.90
2023-03-31T09:17:39.068Z,12.00
2023-03-31T09:20:16.017Z,12.20
2023-03-31T09:23:21.922Z,12.80
2023-03-31T09:25:49.339Z,13.20
2023-03-31T09:28:22.580Z,13.40
2023-03-31T09:30:50.023Z,13.40
2023-03-31T09:33:34.166Z,13.70
2023-03-31T09:36:02.284Z,14.20
2023-03-31T09:38:31.173Z,14.30
2023-03-31T09:41:00.359Z,14.40
2023-03-31T09:43:30.136Z,14.30
2023-03-31T09:46:09.338Z,14.20
2023-03-31T09:48:38.987Z,14.20
2023-03-31T09:51:14.585Z,13.90
2023-03-31T09:53:53.860Z,13.90
2023-03-31T09:56:46.370Z,14.20
2023-03-31T09:59:19.318Z,14.00
2023-03-31T10:01:51.778Z,14.20
2023-03-31T10:04:25.135Z,14.30
2023-03-31T10:06:53.707Z,14.40
2023-03-31T10:09:25.495Z,14.50
2023-03-31T10:12:04.500Z,14.30
2023-03-31T10:14:48.119Z,14.10
2023-03-31T10:17:23.888Z,14.20
2023-03-31T10:19:54.246Z,14.40
2023-03-31T10:22:21.612Z,14.20
2023-03-31T10:24:50.875Z,14.20
2023-03-31T10:27:29.969Z,14.00
2023-03-31T10:30:03.074Z,14.30
2023-03-31T10:32:33.919Z,14.10
2023-03-31T10:35:08.672Z,13.90
2023-03-31T10:37:37.518Z,14.00
2023-03-31T10:40:19.751Z,13.90
2023-03-31T10:42:58.374Z,13.60
2023-03-31T10:45:37.059Z,13.20
2023-03-31T10:48:06.964Z,12.70
2023-03-31T10:50:36.613Z,12.30
2023-03-31T10:53:05.308Z,12.30
2023-03-31T10:55:39.480Z,11.90
2023-03-31T10:58:14.994Z,11.60
2023-03-31T11:00:57.865Z,11.50
2023-03-31T11:03:50.086Z,11.60
2023-03-31T11:06:57.203Z,11.80
2023-03-31T11:09:50.240Z,12.00
2023-03-31T11:12:36.237Z,12.20
2023-03-31T11:15:21.884Z,12.10
2023-03-31T11:18:32.884Z,12.30
2023-03-31T11:21:14.812Z,13.00
2023-03-31T11:23:42.945Z,13.00
2023-03-31T11:26:25.087Z,13.20
2023-03-31T11:29:13.268Z,13.40
2023-03-31T11:31:58.720Z,13.50
2023-03-31T11:34:53.168Z,13.70
2023-03-31T11:37:50.625Z,13.70
2023-03-31T11:40:30.604Z,13.70
2023-03-31T11:43:24.533Z,13.80
2023-03-31T11:45:57.236Z,14.00
2023-03-31T11:48:46.275Z,14.00
2023-03-31T11:51:30.808Z,14.00
2023-03-31T11:54:02.595Z,14.00
2023-03-31T11:56:36.427Z,14.40
2023-03-31T11:59:06.117Z,14.50
2023-03-31T12:01:33.733Z,14.00
2023-03-31T12:04:25.499Z,13.80
2023-03-31T12:07:00.164Z,13.70
2023-03-31T12:09:51.966Z,13.60
2023-03-31T12:12:35.743Z,13.00
2023-03-31T12:15:14.840Z,13.00
2023-03-31T12:17:47.803Z,12.60
2023-03-31T12:20:26.685Z,11.80
2023-03-31T12:22:55.368Z,10.60
2023-03-31T12:25:23.171Z,10.10
2023-03-31T12:27:51.592Z,10.00
2023-03-31T12:30:34.699Z,9.70
2023-03-31T12:33:23.139Z,9.50
2023-03-31T12:36:05.350Z,9.20
2023-03-31T12:38:50.756Z,8.90
2023-03-31T12:41:23.943Z,8.50
2023-03-31T12:44:07.843Z,8.50
2023-03-31T12:46:35.014Z,8.70
2023-03-31T12:49:23.776Z,9.10
2023-03-31T12:52:16.439Z,9.70
2023-03-31T12:55:11.682Z,9.80
2023-03-31T12:57:38.947Z,9.60
2023-03-31T13:00:12.667Z,9.80
2023-03-31T13:02:41.228Z,10.10
2023-03-31T13:05:36.435Z,10.20
2023-03-31T13:08:10.563Z,10.60
2023-03-31T13:10:59.256Z,10.90
2023-03-31T13:13:26.998Z,10.90
2023-03-31T13:15:59.862Z,10.90
2023-03-31T13:18:27.919Z,11.10
2023-03-31T13:23:37.718Z,11.30
2023-03-31T13:26:06.927Z,11.20
2023-03-31T13:28:40.204Z,11.00
2023-03-31T13:31:12.678Z,10.80
2023-03-31T13:33:58.229Z,10.70
2023-03-31T13:36:41.702Z,10.70
2023-03-31T13:39:17.948Z,10.70
2023-03-31T13:41:54.057Z,10.70
2023-03-31T13:44:29.690Z,10.60
2023-03-31T13:47:26.738Z,10.00
2023-03-31T13:49:59.612Z,10.00
2023-03-31T13:52:31.939Z,10.00
2023-03-31T13:55:08.166Z,9.80
2023-03-31T13:58:08.027Z,9.70
2023-03-31T14:01:05.698Z,8.60
2023-03-31T14:04:07.618Z,8.60
2023-03-31T14:06:44.671Z,8.50
2023-03-31T14:09:24.024Z,8.40
2023-03-31T14:11:51.268Z,8.50
2023-03-31T14:14:19.356Z,8.80
2023-03-31T14:17:46.007Z,9.10
2023-03-31T14:20:15.677Z,9.70
2023-03-31T14:25:25.508Z,10.00
2023-03-31T14:27:33.854Z,10.30
2023-03-31T14:30:54.571Z,9.90
2023-03-31T14:33:42.215Z,9.90
2023-03-31T14:36:50.133Z,9.90
2023-03-31T14:39:22.946Z,9.80
2023-03-31T14:42:22.423Z,10.20
2023-03-31T14:48:24.182Z,10.20
2023-03-31T14:51:14.179Z,10.00
2023-03-31T14:53:43.381Z,10.10
2023-03-31T14:56:20.313Z,10.20
2023-03-31T14:58:51.688Z,10.30
2023-03-31T15:01:35.851Z,10.50
2023-03-31T15:04:11.294Z,10.50
2023-03-31T15:06:41.918Z,10.40
2023-03-31T15:09:19.027Z,10.40
2023-03-31T15:11:48.110Z,10.40
2023-03-31T15:14:15.377Z,10.30
2023-03-31T15:16:45.110Z,10.30
2023-03-31T15:19:15.594Z,10.40
2023-03-31T15:21:44.131Z,10.40
2023-03-31T15:24:15.067Z,10.40
2023-03-31T15:26:51.954Z,10.40
2023-03-31T15:29:34.119Z,10.40
2023-03-31T15:32:01.535Z,10.40
2023-03-31T15:34:34.467Z,10.50
2023-03-31T15:37:02.467Z,10.50
2023-03-31T15:39:33.039Z,10.50
2023-03-31T15:42:05.895Z,10.50
2023-03-31T15:44:59.202Z,10.40
2023-03-31T15:47:29.808Z,10.30
2023-03-31T15:50:12.897Z,10.30
2023-03-31T15:52:48.399Z,10.30
2023-03-31T15:55:33.228Z,10.20
2023-03-31T15:58:02.016Z,10.00
2023-03-31T16:00:47.658Z,10.10
2023-03-31T16:03:19.099Z,10.10
2023-03-31T16:05:56.511Z,10.20
2023-03-31T16:08:44.923Z,10.40
2023-03-31T16:11:53.558Z,10.40
2023-03-31T16:14:23.154Z,10.40
2023-03-31T16:16:58.260Z,10.30
2023-03-31T16:19:29.263Z,10.40
2023-03-31T16:22:01.870Z,10.20
2023-03-31T16:24:33.483Z,10.10
2023-03-31T16:27:06.286Z,9.90
2023-03-31T16:29:37.064Z,10.00
2023-03-31T16:32:11.574Z,10.00
2023-03-31T16:34:59.081Z,10.00
2023-03-31T16:37:26.727Z,9.80
2023-03-31T16:39:54.328Z,9.70
2023-03-31T16:42:21.703Z,9.70
2023-03-31T16:44:59.863Z,9.70
2023-03-31T16:47:35.685Z,9.20
2023-03-31T16:50:07.483Z,8.60
2023-03-31T16:52:36.947Z,8.30
2023-03-31T16:55:04.588Z,8.10
2023-03-31T16:57:32.305Z,8.10
2023-03-31T16:59:59.765Z,7.90
2023-03-31T17:02:27.231Z,7.60
2023-03-31T17:04:59.459Z,7.50
2023-03-31T17:07:33.603Z,7.50
2023-03-31T17:10:00.959Z,7.50
2023-03-31T17:12:28.212Z,7.70
2023-03-31T17:14:55.597Z,7.80
2023-03-31T17:17:22.984Z,7.70
2023-03-31T17:19:50.590Z,7.70
2023-03-31T17:22:17.806Z,7.80
2023-03-31T17:24:45.321Z,7.80
2023-03-31T17:27:13.581Z,7.90
2023-03-31T17:29:40.829Z,7.90
2023-03-31T17:32:08.303Z,7.90
2023-03-31T17:34:35.728Z,7.90
2023-03-31T17:37:03.007Z,7.90
2023-03-31T17:39:30.394Z,7.90
2023-03-31T17:41:58.511Z,7.80
2023-03-31T17:44:25.767Z,7.80
2023-03-31T17:46:53.144Z,7.70
2023-03-31T17:49:21.184Z,7.60
2023-03-31T17:51:48.513Z,7.60
2023-03-31T17:54:15.754Z,7.60
2023-03-31T17:56:45.303Z,7.60
2023-03-31T17:59:12.578Z,7.60
2023-03-31T18:01:39.820Z,7.60
2023-03-31T18:04:07.387Z,7.70
2023-03-31T18:06:34.741Z,7.60
2023-03-31T18:09:02.250Z,7.50
2023-03-31T18:11:31.109Z,7.60
2023-03-31T18:14:01.886Z,7.60
2023-03-31T18:16:32.202Z,7.60
2023-03-31T18:18:59.649Z,7.70
2023-03-31T18:21:27.175Z,7.70
2023-03-31T18:23:55.393Z,7.80
2023-03-31T18:26:24.599Z,7.90
2023-03-31T18:28:52.233Z,8.00
2023-03-31T18:31:25.099Z,8.10
2023-03-31T18:33:54.453Z,8.10
2023-03-31T18:36:23.337Z,8.10
2023-03-31T18:38:51.506Z,8.10
2023-03-31T18:41:19.343Z,8.30
2023-03-31T18:43:52.184Z,8.20
2023-03-31T18:46:20.530Z,8.30
2023-03-31T18:48:47.793Z,8.30
2023-03-31T18:51:15.468Z,8.30
2023-03-31T18:53:42.880Z,8.30
2023-03-31T18:56:10.244Z,8.40
2023-03-31T18:58:37.675Z,8.40
2023-03-31T19:01:05.121Z,8.50
2023-03-31T19:03:32.583Z,8.60
2023-03-31T19:06:05.218Z,8.70
2023-03-31T19:08:32.909Z,8.70
2023-03-31T19:11:12.795Z,8.60
2023-03-31T19:13:42.891Z,8.50
2023-03-31T19:16:11.770Z,8.60
2023-03-31T19:18:39.483Z,8.60
2023-03-31T19:21:07.195Z,8.50
2023-03-31T19:23:34.942Z,8.60
2023-03-31T19:26:03.134Z,8.50
2023-03-31T19:28:30.876Z,8.50
2023-03-31T19:30:58.928Z,8.40
2023-03-31T19:33:26.786Z,8.40
2023-03-31T19:35:54.906Z,8.40
2023-03-31T19:38:22.394Z,8.40
2023-03-31T19:40:50.064Z,8.50
2023-03-31T19:43:20.838Z,8.50
2023-03-31T19:45:49.453Z,8.60
2023-03-31T19:48:17.384Z,8.50
2023-03-31T19:50:51.852Z,8.60
2023-03-31T19:53:20.029Z,8.60
2023-03-31T19:56:03.150Z,8.60
2023-03-31T19:58:35.160Z,8.60
2023-03-31T20:01:05.164Z,8.50
2023-03-31T20:03:33.264Z,8.50
2023-03-31T20:06:09.251Z,8.50
2023-03-31T20:08:37.566Z,8.60
2023-03-31T20:11:08.175Z,8.60
2023-03-31T20:13:36.063Z,8.50
2023-03-31T20:16:08.120Z,8.50
2023-03-31T20:18:36.810Z,8.50
2023-03-31T20:21:13.178Z,8.50
2023-03-31T20:23:41.710Z,8.30
2023-03-31T20:26:12.169Z,8.30
2023-03-31T20:28:40.592Z,8.20
2023-03-31T20:31:17.823Z,8.20
2023-03-31T20:33:46.545Z,8.20
2023-03-31T20:36:16.578Z,8.10
2023-03-31T20:38:46.431Z,8.10
2023-03-31T20:41:14.714Z,8.00
2023-03-31T20:43:42.277Z,8.00
2023-03-31T20:46:10.327Z,7.90
2023-03-31T20:48:58.173Z,8.00
2023-03-31T20:51:30.438Z,7.80
2023-03-31T20:56:51.362Z,7.80
2023-03-31T20:59:23.354Z,7.70
